WXM80 ListenWXM80 Stop

You find our weather info also at:

UK Metoffice

WeatherCloud

Weather Underground

Northeastern Weather Network

AWEKAS

Citizen Weather Observer Program (CWOP)

HAMweather, WeatherForYou, PWS Weather


Weather Underground History page Text

Daily Summary for December 13, 2016 Units:  English    Metric   Both
« Previous Day
Next Day »
Daily Weekly Monthly Yearly Custom
  High: Low: Average:
Temperature: 43.4 °F 36.8 °F 39.5 °F
Dew Point: 33.5 °F 24.5 °F 28.2 °F
Humidity: 80 % 50 % 64 %
Wind Speed: 10.3 mph 0.0 mph 2.8 mph
Wind Gust: 17.0 mph - -
Wind:- - West
Pressure: 30.16 in 29.96 in -
Precipitation: 0.00 in    
Historical Graphs
 
 
Tabular Data for December 13, 2016
Time Temperature Dew Point Pressure Wind Wind Speed Wind Gust Humidity Rainfall Rate (Hourly)
00:00 40.8 °F 33.5 °F 29.96 in WNW 3.9 mph 6.9 mph 75 % 0.00 in
00:05 40.7 °F 33.1 °F 29.96 in West 5.0 mph 8.1 mph 74 % 0.00 in
00:10 40.7 °F 32.7 °F 29.97 in West 6.0 mph 11.5 mph 73 % 0.00 in
00:15 40.7 °F 32.7 °F 29.97 in WNW 5.0 mph 8.1 mph 73 % 0.00 in
00:20 40.7 °F 32.4 °F 29.97 in SW 5.9 mph 10.4 mph 72 % 0.00 in
00:25 40.7 °F 32.4 °F 29.97 in WNW 6.9 mph 15.0 mph 72 % 0.00 in
00:30 40.7 °F 32.0 °F 29.98 in WSW 6.0 mph 13.8 mph 71 % 0.00 in
00:35 40.7 °F 32.0 °F 29.98 in WNW 5.5 mph 10.4 mph 71 % 0.00 in
00:41 40.6 °F 31.9 °F 29.99 in West 4.8 mph 12.7 mph 71 % 0.00 in
00:46 40.6 °F 31.9 °F 29.99 in WNW 3.9 mph 11.5 mph 71 % 0.00 in
00:51 40.5 °F 32.2 °F 29.99 in West 5.9 mph 10.4 mph 72 % 0.00 in
00:56 40.5 °F 32.2 °F 29.99 in WNW 2.2 mph 5.8 mph 72 % 0.00 in
01:01 40.4 °F 32.1 °F 29.99 in NW 5.5 mph 12.7 mph 72 % 0.00 in
01:06 40.3 °F 31.6 °F 29.99 in WSW 5.3 mph 11.5 mph 71 % 0.00 in
01:11 40.2 °F 31.5 °F 29.99 in WNW 6.1 mph 11.5 mph 71 % 0.00 in
01:16 40.2 °F 31.9 °F 29.99 in WNW 2.7 mph 5.8 mph 72 % 0.00 in
01:21 40.1 °F 31.8 °F 30.00 in West 6.3 mph 7.0 mph 72 % 0.00 in
01:26 40.0 °F 32.4 °F 30.00 in WSW 5.4 mph 11.5 mph 74 % 0.00 in
01:32 39.9 °F 32.3 °F 30.00 in West 5.2 mph 11.5 mph 74 % 0.00 in
01:37 39.8 °F 31.8 °F 30.00 in West 5.0 mph 9.2 mph 73 % 0.00 in
01:42 39.7 °F 31.4 °F 30.01 in SSW 5.7 mph 10.4 mph 72 % 0.00 in
01:47 39.7 °F 31.4 °F 30.01 in West 4.2 mph 9.0 mph 72 % 0.00 in
01:52 39.6 °F 31.3 °F 30.02 in West 4.9 mph 9.2 mph 72 % 0.00 in
01:57 39.5 °F 30.9 °F 30.02 in WNW 5.3 mph 10.4 mph 71 % 0.00 in
02:02 39.4 °F 30.8 °F 30.02 in WSW 4.9 mph 9.2 mph 71 % 0.00 in
02:07 39.3 °F 30.3 °F 30.02 in West 4.4 mph 10.4 mph 70 % 0.00 in
02:12 39.3 °F 30.3 °F 30.02 in West 10.3 mph 16.1 mph 70 % 0.00 in
02:17 39.3 °F 30.0 °F 30.02 in NW 6.9 mph 10.4 mph 69 % 0.00 in
02:23 39.2 °F 29.9 °F 30.02 in WNW 8.3 mph 16.1 mph 69 % 0.00 in
02:28 39.2 °F 29.9 °F 30.03 in WNW 6.1 mph 12.7 mph 69 % 0.00 in
02:33 39.2 °F 29.9 °F 30.03 in WSW 5.8 mph 11.5 mph 69 % 0.00 in
02:38 39.1 °F 29.4 °F 30.03 in NNW 8.9 mph 13.0 mph 68 % 0.00 in
02:43 39.1 °F 29.4 °F 30.03 in WNW 10.1 mph 16.1 mph 68 % 0.00 in
02:48 39.0 °F 29.0 °F 30.04 in NNW 9.0 mph 12.7 mph 67 % 0.00 in
02:53 39.0 °F 29.0 °F 30.04 in WNW 7.7 mph 17.0 mph 67 % 0.00 in
02:58 38.9 °F 29.2 °F 30.04 in West 6.5 mph 12.7 mph 68 % 0.00 in
03:03 38.9 °F 28.9 °F 30.04 in NW 6.4 mph 11.5 mph 67 % 0.00 in
03:08 38.8 °F 29.1 °F 30.04 in WNW 5.5 mph 10.4 mph 68 % 0.00 in
03:14 38.7 °F 28.7 °F 30.04 in WNW 6.6 mph 10.4 mph 67 % 0.00 in
03:19 38.5 °F 27.7 °F 30.04 in WNW 5.8 mph 13.8 mph 65 % 0.00 in
03:24 38.4 °F 27.7 °F 30.04 in NNW 7.7 mph 14.0 mph 65 % 0.00 in
03:29 38.3 °F 27.6 °F 30.04 in NW 4.2 mph 13.8 mph 65 % 0.00 in
03:34 38.2 °F 27.1 °F 30.05 in WNW 4.9 mph 10.4 mph 64 % 0.00 in
03:39 38.2 °F 27.1 °F 30.05 in NW 5.7 mph 12.7 mph 64 % 0.00 in
03:44 38.2 °F 27.5 °F 30.05 in NNW 5.2 mph 13.8 mph 65 % 0.00 in
03:49 38.1 °F 27.0 °F 30.05 in NE 7.2 mph 15.0 mph 64 % 0.00 in
03:54 38.0 °F 26.9 °F 30.05 in NW 7.5 mph 12.7 mph 64 % 0.00 in
03:59 38.0 °F 26.9 °F 30.06 in NW 8.6 mph 12.0 mph 64 % 0.00 in
04:04 38.0 °F 26.9 °F 30.06 in WNW 7.0 mph 15.0 mph 64 % 0.00 in
04:09 37.9 °F 26.8 °F 30.06 in WNW 7.0 mph 13.0 mph 64 % 0.00 in
04:14 37.9 °F 26.8 °F 30.07 in WNW 5.1 mph 13.8 mph 64 % 0.00 in
04:19 37.9 °F 26.8 °F 30.07 in WNW 3.0 mph 12.0 mph 64 % 0.00 in
04:24 37.9 °F 26.8 °F 30.07 in WNW 6.0 mph 12.0 mph 64 % 0.00 in
04:29 37.8 °F 26.7 °F 30.07 in WNW 4.0 mph 10.4 mph 64 % 0.00 in
04:34 37.8 °F 26.7 °F 30.07 in WNW 5.0 mph 12.0 mph 64 % 0.00 in
04:39 37.7 °F 25.8 °F 30.07 in WNW 4.4 mph 11.5 mph 62 % 0.00 in
04:44 37.7 °F 25.8 °F 30.07 in WNW 1.8 mph 5.8 mph 62 % 0.00 in
04:49 37.6 °F 26.1 °F 30.08 in WNW 0.8 mph 3.0 mph 63 % 0.00 in
04:54 37.5 °F 25.7 °F 30.08 in WNW 5.0 mph 14.0 mph 62 % 0.00 in
04:59 37.5 °F 25.7 °F 30.08 in WNW 3.5 mph 9.2 mph 62 % 0.00 in
05:05 37.4 °F 25.6 °F 30.08 in WNW 3.0 mph 14.0 mph 62 % 0.00 in
05:09 37.4 °F 25.6 °F 30.08 in WSW 4.2 mph 10.4 mph 62 % 0.00 in
05:15 37.3 °F 25.1 °F 30.09 in West 5.6 mph 10.4 mph 61 % 0.00 in
05:20 37.3 °F 25.1 °F 30.09 in WSW 4.2 mph 8.1 mph 61 % 0.00 in
05:25 37.3 °F 25.5 °F 30.09 in WNW 5.1 mph 9.2 mph 62 % 0.00 in
05:30 37.2 °F 25.0 °F 30.10 in WNW 4.5 mph 8.1 mph 61 % 0.00 in
05:35 37.2 °F 25.0 °F 30.10 in NW 5.1 mph 10.4 mph 61 % 0.00 in
05:40 37.2 °F 24.6 °F 30.10 in WNW 2.9 mph 5.0 mph 60 % 0.00 in
05:45 37.2 °F 24.6 °F 30.10 in WNW 4.6 mph 11.5 mph 60 % 0.00 in
05:50 37.2 °F 25.0 °F 30.10 in WNW 4.4 mph 6.9 mph 61 % 0.00 in
05:55 37.1 °F 24.9 °F 30.11 in West 5.1 mph 8.1 mph 61 % 0.00 in
06:01 37.1 °F 24.9 °F 30.11 in NW 4.4 mph 5.8 mph 61 % 0.00 in
06:06 37.1 °F 24.9 °F 30.12 in NW 9.3 mph 11.5 mph 61 % 0.00 in
06:11 37.1 °F 24.5 °F 30.12 in West 6.1 mph 11.5 mph 60 % 0.00 in
06:16 37.1 °F 24.5 °F 30.12 in West 4.7 mph 10.4 mph 60 % 0.00 in
06:21 37.1 °F 24.5 °F 30.12 in West 5.2 mph 8.1 mph 60 % 0.00 in
06:26 37.1 °F 24.9 °F 30.12 in SW 4.6 mph 9.2 mph 61 % 0.00 in
06:31 37.1 °F 24.9 °F 30.12 in WNW 3.4 mph 8.1 mph 61 % 0.00 in
06:36 37.1 °F 24.9 °F 30.12 in WNW 3.6 mph 6.0 mph 61 % 0.00 in
06:41 37.1 °F 24.9 °F 30.12 in WNW 4.7 mph 6.9 mph 61 % 0.00 in
06:46 37.1 °F 25.3 °F 30.12 in WNW 4.8 mph 8.1 mph 62 % 0.00 in
06:52 37.0 °F 25.2 °F 30.12 in WSW 4.5 mph 8.1 mph 62 % 0.00 in
06:57 37.0 °F 24.8 °F 30.12 in West 3.9 mph 9.2 mph 61 % 0.00 in
07:02 37.0 °F 25.2 °F 30.13 in West 3.8 mph 9.2 mph 62 % 0.00 in
07:07 37.0 °F 25.2 °F 30.13 in WSW 4.0 mph 8.1 mph 62 % 0.00 in
07:12 36.9 °F 25.1 °F 30.13 in WSW 5.4 mph 8.1 mph 62 % 0.00 in
07:17 36.9 °F 25.1 °F 30.14 in West 5.2 mph 8.1 mph 62 % 0.00 in
07:22 36.9 °F 25.1 °F 30.14 in West 3.4 mph 6.0 mph 62 % 0.00 in
07:27 36.9 °F 25.1 °F 30.14 in WSW 5.1 mph 8.0 mph 62 % 0.00 in
07:32 36.9 °F 25.1 °F 30.14 in WNW 2.3 mph 3.5 mph 62 % 0.00 in
07:37 36.9 °F 25.1 °F 30.14 in West 1.1 mph 3.5 mph 62 % 0.00 in
07:43 36.8 °F 25.4 °F 30.14 in West 2.6 mph 4.0 mph 63 % 0.00 in
07:48 36.9 °F 25.5 °F 30.14 in WNW 3.4 mph 9.2 mph 63 % 0.00 in
07:53 36.9 °F 25.1 °F 30.14 in WSW 2.3 mph 5.8 mph 62 % 0.00 in
07:58 36.9 °F 25.5 °F 30.15 in West 1.9 mph 3.5 mph 63 % 0.00 in
08:03 37.0 °F 25.6 °F 30.15 in West 1.3 mph 3.5 mph 63 % 0.00 in
08:08 37.0 °F 25.6 °F 30.14 in West 0.7 mph 3.5 mph 63 % 0.00 in
08:13 37.1 °F 25.3 °F 30.14 in West 5.4 mph 9.2 mph 62 % 0.00 in
08:18 37.2 °F 25.4 °F 30.15 in West 3.1 mph 4.6 mph 62 % 0.00 in
08:23 37.3 °F 25.8 °F 30.15 in WNW 2.4 mph 3.5 mph 63 % 0.00 in
08:28 37.4 °F 26.3 °F 30.15 in SSW 2.6 mph 6.0 mph 64 % 0.00 in
08:34 37.5 °F 25.7 °F 30.15 in NW 6.0 mph 8.1 mph 62 % 0.00 in
08:39 37.6 °F 25.7 °F 30.15 in WNW 3.6 mph 6.9 mph 62 % 0.00 in
08:44 37.7 °F 25.8 °F 30.15 in WNW 3.2 mph 6.0 mph 62 % 0.00 in
08:49 37.9 °F 25.6 °F 30.15 in NW 5.2 mph 8.0 mph 61 % 0.00 in
08:54 38.0 °F 25.7 °F 30.15 in NW 3.1 mph 5.8 mph 61 % 0.00 in
08:59 38.2 °F 25.9 °F 30.15 in West 3.8 mph 6.0 mph 61 % 0.00 in
09:04 38.4 °F 25.7 °F 30.15 in WNW 1.3 mph 5.8 mph 60 % 0.00 in
09:09 38.6 °F 26.7 °F 30.15 in SSW 2.3 mph 5.0 mph 62 % 0.00 in
09:14 38.7 °F 26.0 °F 30.15 in NW 3.8 mph 7.0 mph 60 % 0.00 in
09:19 38.8 °F 26.1 °F 30.15 in NW 4.3 mph 5.8 mph 60 % 0.00 in
09:24 38.9 °F 26.2 °F 30.15 in WNW 5.0 mph 9.0 mph 60 % 0.00 in
09:29 39.0 °F 25.9 °F 30.15 in WNW 2.0 mph 9.0 mph 59 % 0.00 in
09:34 39.2 °F 26.1 °F 30.15 in WNW 2.0 mph 9.0 mph 59 % 0.00 in
09:39 39.3 °F 26.2 °F 30.16 in WNW 2.0 mph 7.0 mph 59 % 0.00 in
09:44 39.6 °F 26.0 °F 30.15 in WNW 3.0 mph 8.0 mph 58 % 0.00 in
09:49 39.8 °F 26.2 °F 30.16 in NW 3.8 mph 11.5 mph 58 % 0.00 in
09:54 40.0 °F 26.0 °F 30.16 in WNW 2.0 mph 8.0 mph 57 % 0.00 in
09:59 40.4 °F 26.4 °F 30.16 in WNW 5.2 mph 6.0 mph 57 % 0.00 in
10:05 40.5 °F 26.0 °F 30.16 in West 4.7 mph 9.2 mph 56 % 0.00 in
10:10 40.7 °F 26.2 °F 30.16 in WNW 0.3 mph 2.3 mph 56 % 0.00 in
10:15 41.0 °F 26.1 °F 30.16 in WNW 4.9 mph 8.0 mph 55 % 0.00 in
10:20 41.1 °F 26.1 °F 30.16 in WNW 5.9 mph 11.5 mph 55 % 0.00 in
10:25 41.0 °F 26.1 °F 30.15 in WSW 6.8 mph 10.4 mph 55 % 0.00 in
10:30 41.1 °F 26.1 °F 30.15 in WNW 3.2 mph 6.9 mph 55 % 0.00 in
10:35 41.1 °F 26.1 °F 30.15 in West 2.9 mph 6.9 mph 55 % 0.00 in
10:40 41.2 °F 25.8 °F 30.14 in WNW 3.7 mph 5.8 mph 54 % 0.00 in
10:46 41.1 °F 25.7 °F 30.14 in West 2.6 mph 8.1 mph 54 % 0.00 in
10:53 41.2 °F 25.8 °F 30.14 in WNW 4.4 mph 6.9 mph 54 % 0.00 in
10:58 41.1 °F 25.7 °F 30.14 in WNW 0.7 mph 3.5 mph 54 % 0.00 in
11:08 41.2 °F 26.2 °F 30.14 in WNW 3.0 mph 5.8 mph 55 % 0.00 in
11:16 41.2 °F 26.7 °F 30.14 in WNW 2.9 mph 3.5 mph 56 % 0.00 in
11:22 41.1 °F 27.0 °F 30.13 in WSW 3.9 mph 4.6 mph 57 % 0.00 in
11:27 41.1 °F 27.0 °F 30.13 in West 0.1 mph 1.2 mph 57 % 0.00 in
11:34 41.1 °F 27.0 °F 30.13 in WSW 4.4 mph 6.0 mph 57 % 0.00 in
11:56 41.1 °F 26.6 °F 30.12 in South 1.1 mph 3.5 mph 56 % 0.00 in
12:03 41.3 °F 25.9 °F 30.12 in WSW 1.7 mph 4.0 mph 54 % 0.00 in
12:09 41.4 °F 25.5 °F 30.11 in WSW 4.2 mph 5.0 mph 53 % 0.00 in
12:10 41.4 °F 25.5 °F 30.11 in WSW 3.6 mph 4.6 mph 53 % 0.00 in
12:12 41.5 °F 26.1 °F 30.11 in WNW 3.2 mph 5.8 mph 54 % 0.00 in
12:13 41.5 °F 25.6 °F 30.11 in WNW 2.0 mph 5.8 mph 53 % 0.00 in
12:15 41.5 °F 26.1 °F 30.11 in WNW 2.5 mph 3.5 mph 54 % 0.00 in
12:17 41.6 °F 26.2 °F 30.11 in SW 2.6 mph 5.0 mph 54 % 0.00 in
12:20 41.7 °F 26.7 °F 30.11 in WSW 2.5 mph 3.5 mph 55 % 0.00 in
12:25 42.0 °F 27.0 °F 30.10 in NNW 1.6 mph 4.6 mph 55 % 0.00 in
12:30 42.3 °F 27.7 °F 30.10 in NW 2.4 mph 3.5 mph 56 % 0.00 in
12:35 42.5 °F 27.0 °F 30.09 in NNW 0.9 mph 3.5 mph 54 % 0.00 in
12:40 42.8 °F 28.6 °F 30.09 in WNW 3.0 mph 4.6 mph 57 % 0.00 in
12:45 42.9 °F 27.4 °F 30.08 in NNW 0.2 mph 4.6 mph 54 % 0.00 in
12:50 42.8 °F 26.4 °F 30.08 in West 1.3 mph 3.5 mph 52 % 0.00 in
12:55 42.8 °F 25.9 °F 30.08 in SW 2.3 mph 3.5 mph 51 % 0.00 in
13:00 42.8 °F 25.9 °F 30.08 in WNW 1.4 mph 3.5 mph 51 % 0.00 in
13:06 42.7 °F 25.8 °F 30.08 in WNW 1.4 mph 2.0 mph 51 % 0.00 in
13:11 42.7 °F 26.3 °F 30.08 in West 1.8 mph 4.0 mph 52 % 0.00 in
13:16 42.8 °F 26.4 °F 30.08 in WNW 2.4 mph 3.5 mph 52 % 0.00 in
13:21 42.7 °F 26.3 °F 30.08 in WSW 3.5 mph 4.6 mph 52 % 0.00 in
13:26 42.8 °F 25.9 °F 30.09 in WSW 2.9 mph 4.0 mph 51 % 0.00 in
13:31 42.9 °F 25.5 °F 30.09 in WSW 4.5 mph 6.9 mph 50 % 0.00 in
13:36 42.9 °F 25.5 °F 30.09 in WSW 2.8 mph 5.0 mph 50 % 0.00 in
13:41 43.0 °F 26.1 °F 30.08 in WNW 4.1 mph 5.8 mph 51 % 0.00 in
13:46 43.1 °F 26.7 °F 30.08 in WNW 0.9 mph 2.0 mph 52 % 0.00 in
13:51 43.2 °F 26.3 °F 30.08 in WNW 3.3 mph 4.6 mph 51 % 0.00 in
13:56 43.2 °F 26.3 °F 30.08 in WSW 3.9 mph 5.0 mph 51 % 0.00 in
14:01 43.2 °F 26.3 °F 30.09 in WNW 1.2 mph 3.5 mph 51 % 0.00 in
14:07 43.3 °F 26.8 °F 30.08 in NW 2.7 mph 4.6 mph 52 % 0.00 in
14:12 43.4 °F 26.9 °F 30.09 in WNW 1.5 mph 3.5 mph 52 % 0.00 in
14:17 43.3 °F 26.8 °F 30.08 in WNW 3.3 mph 5.0 mph 52 % 0.00 in
14:22 43.2 °F 27.7 °F 30.08 in WNW 2.8 mph 4.6 mph 54 % 0.00 in
14:27 43.0 °F 27.5 °F 30.08 in WNW 2.3 mph 5.0 mph 54 % 0.00 in
14:32 42.8 °F 27.3 °F 30.08 in NW 3.9 mph 4.6 mph 54 % 0.00 in
14:37 42.6 °F 26.6 °F 30.09 in WNW 1.5 mph 3.5 mph 53 % 0.00 in
14:42 42.5 °F 26.6 °F 30.08 in WNW 3.1 mph 4.6 mph 53 % 0.00 in
14:47 42.4 °F 26.5 °F 30.09 in WNW 1.5 mph 2.3 mph 53 % 0.00 in
14:52 42.2 °F 26.7 °F 30.10 in WSW 1.5 mph 4.6 mph 54 % 0.00 in
14:58 42.2 °F 27.2 °F 30.09 in WNW 1.7 mph 3.5 mph 55 % 0.00 in
15:03 42.1 °F 27.1 °F 30.10 in WNW 1.4 mph 3.5 mph 55 % 0.00 in
15:08 42.1 °F 27.5 °F 30.10 in WNW 0.1 mph 1.2 mph 56 % 0.00 in
15:13 42.0 °F 27.9 °F 30.10 in WNW 2.0 mph 3.5 mph 57 % 0.00 in
15:18 42.0 °F 27.9 °F 30.10 in WNW 0.1 mph 1.2 mph 57 % 0.00 in
15:23 42.0 °F 28.3 °F 30.09 in SSE 3.6 mph 11.0 mph 58 % 0.00 in
15:28 42.0 °F 27.4 °F 30.09 in South 2.1 mph 4.0 mph 56 % 0.00 in
15:33 42.1 °F 27.9 °F 30.09 in South 1.8 mph 3.5 mph 57 % 0.00 in
15:38 42.1 °F 27.9 °F 30.09 in South 4.6 mph 6.9 mph 57 % 0.00 in
15:43 42.1 °F 27.5 °F 30.10 in SW 3.5 mph 5.8 mph 56 % 0.00 in
15:49 42.0 °F 27.4 °F 30.09 in SSW 4.8 mph 9.0 mph 56 % 0.00 in
15:54 42.0 °F 27.9 °F 30.09 in SSW 0.9 mph 3.5 mph 57 % 0.00 in
15:59 41.9 °F 27.8 °F 30.09 in South 2.0 mph 3.5 mph 57 % 0.00 in
16:04 41.9 °F 27.8 °F 30.09 in Calm   1.2 mph 57 % 0.00 in
16:09 41.8 °F 28.1 °F 30.09 in South 0.9 mph 1.2 mph 58 % 0.00 in
16:14 41.7 °F 28.0 °F 30.09 in Calm   2.3 mph 58 % 0.00 in
16:19 41.6 °F 28.3 °F 30.08 in SW 1.2 mph 3.5 mph 59 % 0.00 in
16:24 41.6 °F 28.7 °F 30.08 in SSW 0.6 mph 2.0 mph 60 % 0.00 in
16:29 41.5 °F 29.0 °F 30.08 in SSW 0.2 mph 3.5 mph 61 % 0.00 in
16:34 41.3 °F 28.9 °F 30.08 in SSW 1.0 mph 6.0 mph 61 % 0.00 in
16:39 41.2 °F 29.2 °F 30.08 in SSW 0.9 mph 3.5 mph 62 % 0.00 in
16:44 41.1 °F 29.1 °F 30.08 in SSW 1.0 mph 3.0 mph 62 % 0.00 in
16:49 41.1 °F 29.4 °F 30.08 in South 1.0 mph 3.0 mph 63 % 0.00 in
16:54 40.9 °F 29.3 °F 30.08 in South 0.1 mph 1.2 mph 63 % 0.00 in
17:00 40.9 °F 29.7 °F 30.08 in South 0.7 mph 2.3 mph 64 % 0.00 in
17:05 40.8 °F 29.2 °F 30.08 in South 1.3 mph 3.5 mph 63 % 0.00 in
17:10 40.7 °F 29.5 °F 30.08 in SSW 1.3 mph 2.3 mph 64 % 0.00 in
17:15 40.6 °F 29.0 °F 30.08 in Calm     63 % 0.00 in
17:20 40.5 °F 29.3 °F 30.08 in SSW 1.3 mph 2.3 mph 64 % 0.00 in
17:25 40.5 °F 29.3 °F 30.08 in SSW 1.3 mph 3.5 mph 64 % 0.00 in
17:30 40.4 °F 29.2 °F 30.08 in SSW 1.1 mph 2.3 mph 64 % 0.00 in
17:35 40.3 °F 29.1 °F 30.07 in SSW 1.6 mph 3.5 mph 64 % 0.00 in
17:40 40.2 °F 29.0 °F 30.07 in South 1.5 mph 3.5 mph 64 % 0.00 in
17:45 40.2 °F 29.0 °F 30.07 in South 1.5 mph 2.3 mph 64 % 0.00 in
17:51 40.1 °F 28.9 °F 30.07 in SSW 2.4 mph 4.6 mph 64 % 0.00 in
17:56 40.0 °F 28.8 °F 30.07 in SSW 1.0 mph 3.5 mph 64 % 0.00 in
18:01 40.0 °F 29.2 °F 30.06 in SSW 0.8 mph 2.3 mph 65 % 0.00 in
18:06 39.8 °F 29.0 °F 30.06 in South 1.1 mph 4.0 mph 65 % 0.00 in
18:11 39.8 °F 29.0 °F 30.05 in SSW 0.2 mph 1.2 mph 65 % 0.00 in
18:16 39.7 °F 28.9 °F 30.05 in SSW 0.7 mph 2.3 mph 65 % 0.00 in
18:21 39.7 °F 28.5 °F 30.05 in South 0.7 mph 3.5 mph 64 % 0.00 in
18:26 39.6 °F 28.8 °F 30.05 in South 0.2 mph 1.2 mph 65 % 0.00 in
18:31 39.5 °F 28.7 °F 30.05 in South 0.1 mph   65 % 0.00 in
18:36 39.5 °F 28.7 °F 30.05 in South 0.3 mph 1.2 mph 65 % 0.00 in
18:42 39.4 °F 28.6 °F 30.06 in South 1.1 mph 3.5 mph 65 % 0.00 in
18:47 39.3 °F 28.5 °F 30.06 in South 1.9 mph 3.5 mph 65 % 0.00 in
18:52 39.2 °F 28.4 °F 30.06 in SSW 1.5 mph 3.5 mph 65 % 0.00 in
18:57 39.1 °F 28.3 °F 30.06 in SSW 0.9 mph 2.3 mph 65 % 0.00 in
19:02 39.0 °F 28.6 °F 30.05 in South 0.6 mph 3.5 mph 66 % 0.00 in
19:07 39.0 °F 28.6 °F 30.05 in SSW 1.3 mph 2.3 mph 66 % 0.00 in
19:12 38.9 °F 28.5 °F 30.05 in SSW 1.4 mph 3.5 mph 66 % 0.00 in
19:17 38.9 °F 28.5 °F 30.04 in SSW 1.2 mph 2.0 mph 66 % 0.00 in
19:22 38.9 °F 28.9 °F 30.04 in South 1.2 mph 3.5 mph 67 % 0.00 in
19:27 38.8 °F 28.8 °F 30.05 in Calm     67 % 0.00 in
19:33 38.8 °F 28.8 °F 30.04 in South 0.7 mph 2.3 mph 67 % 0.00 in
19:38 38.8 °F 29.1 °F 30.04 in Calm     68 % 0.00 in
19:43 38.8 °F 29.1 °F 30.04 in South 1.0 mph 2.3 mph 68 % 0.00 in
19:48 38.8 °F 29.1 °F 30.03 in Calm     68 % 0.00 in
19:53 38.7 °F 29.4 °F 30.03 in South 0.1 mph 1.2 mph 69 % 0.00 in
19:58 38.8 °F 29.5 °F 30.02 in SSE 0.1 mph 1.2 mph 69 % 0.00 in
20:03 38.7 °F 29.8 °F 30.01 in Calm   1.2 mph 70 % 0.00 in
20:08 38.7 °F 29.8 °F 30.01 in Calm   1.2 mph 70 % 0.00 in
20:13 38.8 °F 29.8 °F 30.01 in SSE 0.5 mph 1.2 mph 70 % 0.00 in
20:18 38.8 °F 29.8 °F 30.01 in SSE 0.4 mph 1.2 mph 70 % 0.00 in
20:23 38.8 °F 29.8 °F 30.01 in SSE 0.4 mph 3.5 mph 70 % 0.00 in
20:29 38.8 °F 29.8 °F 30.00 in Calm   1.2 mph 70 % 0.00 in
20:34 38.8 °F 30.2 °F 30.01 in SSE 0.2 mph 1.2 mph 71 % 0.00 in
20:39 38.8 °F 30.2 °F 30.00 in Calm     71 % 0.00 in
20:44 38.8 °F 30.2 °F 30.00 in Calm     71 % 0.00 in
20:49 38.9 °F 30.6 °F 30.00 in SSE 0.1 mph 1.2 mph 72 % 0.00 in
20:54 38.8 °F 30.2 °F 30.01 in Calm     71 % 0.00 in
20:59 38.8 °F 30.5 °F 30.00 in Calm     72 % 0.00 in
21:04 38.8 °F 30.9 °F 30.00 in Calm     73 % 0.00 in
21:09 38.7 °F 30.8 °F 29.99 in Calm     73 % 0.00 in
21:14 38.7 °F 31.1 °F 29.99 in Calm     74 % 0.00 in
21:19 38.6 °F 31.0 °F 29.99 in Calm     74 % 0.00 in
21:24 38.5 °F 31.0 °F 29.99 in Calm     74 % 0.00 in
21:29 38.4 °F 30.8 °F 29.99 in Calm     74 % 0.00 in
21:34 38.3 °F 30.7 °F 30.00 in Calm     74 % 0.00 in
21:39 38.3 °F 31.1 °F 30.00 in Calm     75 % 0.00 in
21:44 38.2 °F 31.0 °F 29.99 in Calm     75 % 0.00 in
21:49 38.2 °F 31.3 °F 29.99 in Calm   1.0 mph 76 % 0.00 in
21:54 38.1 °F 31.2 °F 29.99 in Calm   1.0 mph 76 % 0.00 in
21:59 38.1 °F 31.5 °F 29.99 in Calm     77 % 0.00 in
22:04 38.0 °F 31.5 °F 29.99 in Calm     77 % 0.00 in
22:09 38.0 °F 31.7 °F 29.99 in Calm     78 % 0.00 in
22:14 38.0 °F 31.7 °F 29.99 in Calm     78 % 0.00 in
22:19 38.0 °F 31.7 °F 29.99 in Calm     78 % 0.00 in
22:24 37.9 °F 31.7 °F 29.99 in Calm     78 % 0.00 in
22:29 37.9 °F 31.7 °F 30.00 in SSE 0.4 mph 1.2 mph 78 % 0.00 in
22:34 37.9 °F 31.6 °F 30.00 in Calm   1.0 mph 78 % 0.00 in
22:39 37.8 °F 31.6 °F 30.00 in Calm     78 % 0.00 in
22:44 37.8 °F 31.6 °F 30.00 in Calm     78 % 0.00 in
22:49 37.8 °F 31.6 °F 30.00 in Calm   1.0 mph 78 % 0.00 in
22:54 37.8 °F 31.6 °F 30.00 in Calm   1.0 mph 78 % 0.00 in
22:59 37.9 °F 32.0 °F 30.00 in Calm     79 % 0.00 in
23:05 37.9 °F 32.0 °F 30.00 in Calm     79 % 0.00 in
23:10 37.9 °F 32.0 °F 30.00 in Calm     79 % 0.00 in
23:15 37.9 °F 32.0 °F 30.00 in Calm     79 % 0.00 in
23:20 37.9 °F 32.3 °F 30.00 in Calm     80 % 0.00 in
23:25 38.0 °F 32.4 °F 30.00 in Calm     80 % 0.00 in
23:30 38.0 °F 32.4 °F 30.00 in Calm     80 % 0.00 in
23:35 38.0 °F 32.4 °F 29.99 in Calm     80 % 0.00 in
23:40 38.1 °F 32.5 °F 29.99 in Calm   1.2 mph 80 % 0.00 in
23:45 38.0 °F 32.4 °F 29.99 in Calm     80 % 0.00 in
23:50 38.1 °F 32.5 °F 29.98 in Calm     80 % 0.00 in
23:55 38.1 °F 32.5 °F 29.99 in Calm     80 % 0.00 in
Crab Meadow Weather
Compliments of Weather Underground - 3 mb

Script developed by  Jim McMurry - jmcmurry@mwt.net Adapted for the template by  Wim van der Kuil - Leuven-Template.eu

Weather Terms: Advisory - An advisory is issued when a hazardous weather or hydrologic event is occurring, imminent or likely. Advisories are for less serious conditions than warnings, that cause significant inconvenience and if caution is not exercised, could lead to situations that may threaten life or property.